Arizona State University, AZ

5:37 PM MST on March 30, 2015 (GMT -0700)
Down Stream Dam | | Change Station
CLOSE
Current Station
Personal Weather Station
Location: Tempe, AZ
Elevation: 1122 ft
Nearby Weather Stations

Elev 1122 ft 33.43 °N, 111.95 °W | Updated 1 minute ago

Mostly Cloudy
Mostly Cloudy
92.9 °F
Feels Like 88 °F
N
2.0
Wind Variable Wind from South
Gusts 2.0 mph

Today
High -- | Low -- °F
--% Chance of Precip.
Yesterday
High -- | Low -- °F
Precip. -- in
6:18 AM 6:46 PM
Waxing Gibbous, 83% visible
Pressure 29.82 in
Visibility 10.0 miles
Clouds Few 10000 ft
Few 17000 ft
Scattered Clouds 21000 ft
Mostly Cloudy 25000 ft
Heat Index 88 °F
Dew Point 26 °F
Humidity 9%
Rainfall 0.00 in
Snow Depth Not available.
UV 1 out of 12
Pollen 11.80 out of 12
Air Quality Not available.
Flu Activity Not available.
METAR KPHX 302351Z VRB04KT 10SM FEW100 FEW170 SCT210 BKN250 34/M03 A2988 RMK AO2 SLP098 T03441033 10356 20294 56023

More Conditions Fewer Conditions

Pressure 29.82 in
Visibility 10.0 miles
Clouds Few 10000 ft
Few 17000 ft
Scattered Clouds 21000 ft
Mostly Cloudy 25000 ft
Heat Index 88 °F
Dew Point 26 °F
Humidity 9%
Rainfall 0.00 in
Snow Depth Not available.
UV 1 out of 12
Pollen 11.80 out of 12
Air Quality Not available.
Flu Activity Not available.
METAR KPHX 302351Z VRB04KT 10SM FEW100 FEW170 SCT210 BKN250 34/M03 A2988 RMK AO2 SLP098 T03441033 10356 20294 56023

More Conditions Fewer Conditions

10-Day Weather Forecast

Almanac

Astronomy

Mar. 30, 2015 Rise Set
Actual Time
Civil Twilight
Nautical Twilight
Astronomical Twilight
Moon
Length of Visible Light
Length of Day
Tomorrow will be .
, % of the Moon is Illuminated

Today's Extremes

State Highs State Lows

Community

WunderPhotos

Upload Photos

1,809,628 photos uploaded!

WunderBlogs® & News

Nearby

Air Quality

  Air Quality AQ Index Pollutant
Not available.

Snow Depth

Station Depth Elevation

Earthquake Activity

City Distance Mag. Time & Date
Minimum magnitude displayed is 2.5.

Coastal Water Temperatures

Place Temperature

Stations

Nearby Weather Stations

Station Location Temp. Windchill Dew Point Humidity Wind Precip. Elev Updated Type